Latest Coastal Weather Observations for Gannett Cay

IDQ60701

Issued at 11:22 pm EST Wednesday 10 August 2022 (issued every 10 minutes, with the page automatically refreshed every 10 minutes)

About coastal observations | Map of coastal stations | Coastal observations for QLD | Marine services | Other Formats
Station Details ID: 200831 Name: GANNET CAY Lat: -21.98 Lon: 152.47 Height: 2.3 m
Data from the previous 72 hours. | See also: Recent months for locations in Queensland
Date/Time
EST
Wind Sea
Height
m
Swell Vis
km
Cloud Weather Temp
°C
Press
MSL
hPa
Rain since
9am
mm
Dir  Spd
kts
Gust
kts
Height
m
Period
s
Dir
10/11:00pm SE 20 24 - - - - - - - 20.4 1021.4 -
10/10:30pm SE 21 25 - - - - - - - 20.3 1021.8 -
10/10:00pm SE 20 24 - - - - - - - 20.2 1022.0 -
10/09:30pm SE 19 23 - - - - - - - 20.7 1021.8 -
10/09:00pm SE 19 22 - - - - - - - 20.6 1021.8 -
10/08:30pm SE 21 26 - - - - - - - 20.6 1021.6 -
10/08:00pm SE 22 26 - - - - - - - 20.6 1021.3 -
10/07:30pm SE 22 26 - - - - - - - 20.7 1021.1 -
10/07:00pm SE 22 25 - - - - - - - 20.6 1020.7 -
10/06:30pm SE 21 24 - - - - - - - 20.6 1020.6 -
10/06:00pm SE 21 24 - - - - - - - 20.6 1020.5 -
10/05:30pm SE 21 25 - - - - - - - 20.6 1020.3 -
10/05:00pm SE 19 22 - - - - - - - 20.8 1020.2 -
10/04:30pm SE 18 22 - - - - - - - 20.8 1020.1 -
10/04:00pm SE 19 23 - - - - - - - 20.9 1020.0 -
10/03:30pm SE 19 23 - - - - - - - 21.0 1020.0 -
10/03:00pm SE 18 23 - - - - - - - 21.0 1020.0 -
10/02:30pm SE 18 21 - - - - - - - 21.2 1020.0 -
10/02:00pm SE 18 20 - - - - - - - 21.3 1020.1 -
10/01:30pm SE 17 19 - - - - - - - 21.1 1020.3 -
10/01:00pm SE 18 21 - - - - - - - 21.0 1020.5 -
10/12:30pm SE 17 19 - - - - - - - 20.9 1020.6 -
10/12:00pm SE 19 23 - - - - - - - 20.9 1020.9 -
10/11:30am SSE 19 22 - - - - - - - 20.8 1021.3 -
10/11:00am SSE 18 21 - - - - - - - 20.8 1021.6 -
10/10:30am SSE 19 22 - - - - - - - 20.7 1021.9 -
10/10:00am SSE 18 21 - - - - - - - 20.7 1022.0 -
10/09:30am SSE 19 23 - - - - - - - 20.7 1022.0 -
10/09:00am SE 16 19 - - - - - - - 20.5 1021.8 -
10/08:30am SSE 18 21 - - - - - - - 20.4 1021.6 -
10/08:00am SSE 18 21 - - - - - - - 20.4 1021.2 -
10/07:30am SSE 17 20 - - - - - - - 20.3 1020.9 -
10/07:00am SE 18 20 - - - - - - - 20.0 1020.6 -
10/06:30am SSE 18 21 - - - - - - - 20.0 1020.4 -
10/06:00am SSE 18 23 - - - - - - - 19.9 1020.0 -
10/05:30am SSE 19 22 - - - - - - - 19.9 1019.5 -
10/05:00am SSE 19 23 - - - - - - - 20.0 1019.0 -
10/04:30am SSE 21 24 - - - - - - - 19.9 1018.8 -
10/04:00am SSE 20 24 - - - - - - - 19.9 1018.7 -
10/03:30am SSE 21 24 - - - - - - - 20.0 1018.7 -
10/03:00am SSE 19 23 - - - - - - - 19.9 1018.8 -
10/02:30am SSE 19 23 - - - - - - - 19.8 1018.8 -
10/02:00am SSE 19 22 - - - - - - - 19.8 1018.7 -
10/01:30am SSE 18 22 - - - - - - - 19.8 1019.0 -
10/01:00am SSE 18 21 - - - - - - - 19.8 1019.3 -
10/12:30am SSE 17 20 - - - - - - - 19.9 1019.4 -
10/12:00am SSE 18 22 - - - - - - - 19.9 1019.5 -
 
Date/Time
EST
Wind Sea
Height
m
Swell Vis
km
Cloud Weather Temp
°C
Press
MSL
hPa
Rain since
9am
mm
Dir  Spd
kts
Gust
kts
Height
m
Period
s
Dir
09/11:30pm SSE 19 22 - - - - - - - 20.0 1019.7 -
09/11:00pm SSE 18 21 - - - - - - - 20.1 1019.9 -
09/10:30pm SSE 19 23 - - - - - - - 20.0 1019.8 -
09/10:00pm SSE 18 21 - - - - - - - 19.9 1019.7 -
09/09:30pm SSE 19 23 - - - - - - - 19.9 1019.7 -
09/09:00pm SSE 18 21 - - - - - - - 19.9 1019.8 -
09/08:30pm SSE 18 22 - - - - - - - 19.8 1019.7 -
09/08:00pm SSE 19 24 - - - - - - - 19.9 1019.4 -
09/07:30pm SSE 19 22 - - - - - - - 19.8 1019.2 -
09/07:00pm SSE 19 24 - - - - - - - 19.6 1018.8 -
09/06:30pm SSE 20 24 - - - - - - - 19.8 1018.4 -
09/06:00pm SSE 19 23 - - - - - - - 19.5 1018.0 -
09/05:30pm SSE 20 24 - - - - - - - 19.4 1017.6 -
09/05:00pm SSE 21 25 - - - - - - - 19.7 1017.4 -
09/04:30pm SSE 19 23 - - - - - - - 19.7 1017.2 -
09/04:00pm S 19 22 - - - - - - - 19.7 1016.7 -
09/03:30pm SSE 18 22 - - - - - - - 20.1 1016.5 -
09/03:00pm SSE 18 21 - - - - - - - 20.4 1016.3 -
09/02:30pm SSE 17 21 - - - - - - - 20.4 1016.5 -
09/02:00pm SSE 17 20 - - - - - - - 20.6 1016.7 -
09/01:30pm SSE 17 21 - - - - - - - 20.7 1017.1 -
09/01:00pm SSE 17 20 - - - - - - - 20.8 1017.5 -
09/12:30pm SSE 17 21 - - - - - - - 20.8 1017.7 -
09/12:00pm SSE 18 21 - - - - - - - 20.7 1018.1 -
09/11:30am SSE 17 21 - - - - - - - 20.8 1018.4 -
09/11:00am SSE 18 22 - - - - - - - 20.5 1018.6 -
09/10:30am SSE 18 21 - - - - - - - 20.6 1018.8 -
09/10:00am SSE 17 21 - - - - - - - 20.7 1019.1 -
09/09:30am SSE 17 20 - - - - - - - 20.6 1019.1 -
09/09:00am SSE 16 19 - - - - - - - 20.5 1019.1 -
09/08:30am SSE 17 20 - - - - - - - 20.2 1019.0 -
09/08:00am SSE 16 22 - - - - - - - 20.1 1018.9 -
09/07:30am SSE 15 19 - - - - - - - 20.1 1018.8 -
09/07:00am SSE 15 19 - - - - - - - 19.9 1018.5 -
09/06:30am SSE 17 20 - - - - - - - 19.7 1018.3 -
09/06:00am SSE 16 19 - - - - - - - 19.6 1018.0 -
09/05:30am SSE 16 21 - - - - - - - 19.6 1017.8 -
09/05:00am SSE 16 19 - - - - - - - 19.6 1017.5 -
09/04:30am SSE 16 18 - - - - - - - 19.6 1017.3 -
09/04:00am SSE 16 19 - - - - - - - 19.6 1017.1 -
09/03:30am SSE 16 21 - - - - - - - 19.4 1017.2 -
09/03:00am SSE 16 19 - - - - - - - 19.5 1017.5 -
09/02:30am SSE 15 19 - - - - - - - 19.3 1017.7 -
09/02:00am SSE 14 18 - - - - - - - 19.2 1017.9 -
09/01:30am SSE 15 20 - - - - - - - 19.1 1018.2 -
09/01:00am SSE 16 19 - - - - - - - 19.0 1018.6 -
09/12:30am SSE 14 19 - - - - - - - 19.0 1018.6 -
09/12:00am SSE 17 22 - - - - - - - 19.1 1018.9 -
 
Date/Time
EST
Wind Sea
Height
m
Swell Vis
km
Cloud Weather Temp
°C
Press
MSL
hPa
Rain since
9am
mm
Dir  Spd
kts
Gust
kts
Height
m
Period
s
Dir
08/11:30pm SSE 19 22 - - - - - - - 19.1 1019.0 -
08/11:00pm SSE 17 21 - - - - - - - 19.0 1019.0 -
08/10:30pm SSE 18 23 - - - - - - - 19.2 1018.9 -
08/10:00pm SSE 20 25 - - - - - - - 19.1 1018.9 -
08/09:30pm S 18 22 - - - - - - - 19.1 1018.9 -
08/09:00pm S 17 23 - - - - - - - 19.0 1018.8 -
08/08:30pm S 17 22 - - - - - - - 18.8 1018.7 -
08/08:00pm S 16 21 - - - - - - - 18.8 1018.5 -
08/07:30pm S 19 23 - - - - - - - 18.7 1018.2 -
08/07:00pm S 20 25 - - - - - - - 18.7 1017.9 -
08/06:30pm S 18 23 - - - - - - - 18.9 1017.7 -
08/06:00pm S 19 23 - - - - - - - 18.9 1017.5 -
08/05:30pm S 19 23 - - - - - - - 18.9 1017.2 -
08/05:00pm S 19 25 - - - - - - - 19.1 1016.8 -
08/04:30pm S 17 21 - - - - - - - 19.5 1016.7 -
08/04:00pm S 17 22 - - - - - - - 19.7 1016.4 -
08/03:30pm S 17 22 - - - - - - - 19.7 1016.1 -
08/03:00pm S 16 21 - - - - - - - 19.7 1016.0 -
08/02:30pm S 17 20 - - - - - - - 19.9 1016.1 -
08/02:00pm S 16 22 - - - - - - - 19.9 1016.2 -
08/01:30pm SSE 17 20 - - - - - - - 20.2 1016.5 -
08/01:00pm S 17 20 - - - - - - - 20.1 1016.8 -
08/12:30pm S 17 21 - - - - - - - 20.3 1017.3 -
08/12:00pm SSE 16 19 - - - - - - - 20.5 1017.6 -
08/11:30am S 16 20 - - - - - - - 20.5 1018.0 -
08/11:00am SSE 16 21 - - - - - - - 20.5 1018.3 -
08/10:30am SSE 16 19 - - - - - - - 20.5 1018.7 -
08/10:00am S 17 21 - - - - - - - 20.4 1018.8 -
08/09:30am SSE 16 20 - - - - - - - 20.4 1019.0 -
08/09:00am S 17 20 - - - - - - - 20.2 1018.9 -
08/08:30am S 16 20 - - - - - - - 20.2 1018.7 -
08/08:00am SSE 18 21 - - - - - - - 20.3 1018.4 -
08/07:30am SSE 17 21 - - - - - - - 20.3 1018.2 -
08/07:00am SSE 17 21 - - - - - - - 20.2 1018.0 -
08/06:30am S 17 20 - - - - - - - 20.2 1017.6 -
08/06:00am S 17 20 - - - - - - - 20.2 1017.2 -
08/05:30am SSE 17 21 - - - - - - - 20.2 1016.9 -
08/05:00am S 18 20 - - - - - - - 20.3 1016.6 -
08/04:30am SSE 18 21 - - - - - - - 20.4 1016.3 -
08/04:00am S 16 20 - - - - - - - 20.6 1016.0 -
08/03:30am SSE 16 19 - - - - - - - 20.5 1016.0 -
08/03:00am S 16 19 - - - - - - - 20.9 1016.0 -
08/02:30am S 16 18 - - - - - - - 20.9 1016.0 -
08/02:00am S 13 16 - - - - - - - 20.8 1016.1 -
08/01:30am SSE 13 15 - - - - - - - 20.8 1016.4 -
08/01:00am SSE 14 16 - - - - - - - 20.8 1016.6 -
08/12:30am SSE 13 14 - - - - - - - 20.8 1016.8 -
08/12:00am SSE 13 15 - - - - - - - 20.7 1017.0 -
 
Date/Time
EST
Wind Sea
Height
m
Swell Vis
km
Cloud Weather Temp
°C
Press
MSL
hPa
Rain since
9am
mm
Dir  Spd
kts
Gust
kts
Height
m
Period
s
Dir
07/11:30pm SSE 15 17 - - - - - - - 20.8 1017.2 -

Other formats

Comma delimited format used in spreadsheet applications
http://www.bom.gov.au/fwo/IDQ60701/IDQ60701.94379.axf

JavaScript Object Notation format (JSON) in row-major order
http://www.bom.gov.au/fwo/IDQ60701/IDQ60701.94379.json

Data quality

Most of these data are generated automatically and are frequently updated. Quality checks on data are not normally performed. It is possible for incorrect values to appear. Refer to information at About Latest Weather Observations and please check the disclaimer before using these data.